Time;durP1;ratioP1;P1;durP2;ratioP2;P2;SDS_P1;SDS_P2;PMS_P1;PMS_P2;Temp;Humidity;BMP_temperature;BMP_pressure;BME280_temperature;BME280_humidity;BME280_pressure;Samples;Min_cycle;Max_cycle;Signal;HPM_P1;HPM_P2
2022/12/08 00:01:32;;;;;;;2.03;1.80;;;3.00;99.90;;;;;;5065583;28;20200;-63
2022/12/08 00:04:00;;;;;;;3.63;1.83;;;3.00;99.90;;;;;;5053157;28;20205;-64
2022/12/08 00:09:22;;;;;;;2.97;1.70;;;3.00;99.90;;;;;;5050143;28;20320;-63
2022/12/08 00:11:51;;;;;;;7.30;2.47;;;2.90;99.90;;;;;;5064724;28;20199;-63
2022/12/08 00:14:19;;;;;;;2.10;1.90;;;2.90;99.90;;;;;;5053209;28;21065;-63
2022/12/08 00:16:46;;;;;;;2.73;2.17;;;2.90;99.90;;;;;;5064430;28;20192;-63
2022/12/08 00:19:13;;;;;;;5.13;2.50;;;2.90;99.90;;;;;;5064443;28;20208;-63
2022/12/08 00:21:40;;;;;;;5.47;2.53;;;2.90;99.90;;;;;;5040064;28;20910;-63
2022/12/08 00:24:07;;;;;;;3.47;1.87;;;2.90;99.90;;;;;;5060457;28;20199;-63
2022/12/08 00:26:34;;;;;;;3.80;2.27;;;2.90;99.90;;;;;;5052773;28;20204;-65
2022/12/08 00:29:00;;;;;;;7.00;2.30;;;2.90;99.90;;;;;;5060344;28;20207;-64
2022/12/08 00:31:29;;;;;;;3.07;2.30;;;3.00;99.90;;;;;;5060960;28;20232;-63
2022/12/08 00:33:55;;;;;;;4.33;2.63;;;3.00;99.90;;;;;;5066234;28;20197;-63
2022/12/08 00:36:22;;;;;;;4.80;2.00;;;3.00;99.90;;;;;;5040177;28;21987;-64
2022/12/08 00:38:49;;;;;;;3.00;2.30;;;3.00;99.90;;;;;;5062983;28;20226;-63
2022/12/08 00:42:10;;;;;;;4.33;2.73;;;2.90;99.90;;;;;;5054788;28;20211;-64
2022/12/08 00:44:06;;;;;;;5.37;2.23;;;3.00;99.90;;;;;;5052449;28;20216;-64
2022/12/08 00:46:35;;;;;;;5.40;2.27;;;3.00;99.90;;;;;;5064696;28;20356;-63
2022/12/08 00:49:02;;;;;;;3.57;2.87;;;3.00;99.90;;;;;;5068729;28;20204;-64
2022/12/08 00:51:29;;;;;;;4.33;2.43;;;3.00;99.90;;;;;;5044717;28;20816;-64
2022/12/08 00:53:55;;;;;;;5.97;2.80;;;3.00;99.90;;;;;;5070088;28;20229;-63
2022/12/08 00:56:22;;;;;;;2.77;2.20;;;2.90;99.90;;;;;;5059336;28;20215;-63
2022/12/08 00:58:49;;;;;;;4.57;2.63;;;3.00;99.90;;;;;;5069987;28;20664;-63
2022/12/08 01:01:16;;;;;;;3.13;2.40;;;2.90;99.90;;;;;;5056425;28;20212;-64
2022/12/08 01:03:44;;;;;;;4.13;2.07;;;3.00;99.90;;;;;;5069918;28;20699;-64
2022/12/08 01:06:11;;;;;;;3.87;2.47;;;2.90;99.90;;;;;;5062715;28;20211;-64
2022/12/08 01:08:39;;;;;;;2.40;1.90;;;2.90;99.90;;;;;;5039226;28;20199;-64
2022/12/08 01:11:08;;;;;;;3.87;2.10;;;3.00;99.90;;;;;;5047377;28;20246;-64
2022/12/08 01:13:34;;;;;;;4.83;2.57;;;3.00;99.90;;;;;;5054807;28;20231;-63
2022/12/08 01:16:02;;;;;;;3.00;2.27;;;3.00;99.90;;;;;;5038625;28;20208;-63
2022/12/08 01:18:29;;;;;;;2.40;1.90;;;3.00;99.90;;;;;;5065248;28;20192;-64
2022/12/08 01:21:02;;;;;;;4.60;2.10;;;2.90;99.90;;;;;;5064370;28;20231;-64
2022/12/08 01:23:29;;;;;;;3.40;2.30;;;2.90;99.90;;;;;;5041571;28;20211;-64
2022/12/08 01:25:56;;;;;;;4.73;2.13;;;2.90;99.90;;;;;;5054459;28;20956;-64
2022/12/08 01:28:22;;;;;;;5.33;2.33;;;2.90;99.90;;;;;;5072077;28;20256;-63
2022/12/08 01:30:49;;;;;;;3.90;2.10;;;2.90;99.90;;;;;;5066104;28;20250;-63
2022/12/08 01:33:16;;;;;;;4.63;1.50;;;2.90;99.90;;;;;;5060128;28;20200;-64
2022/12/08 01:35:43;;;;;;;5.70;1.80;;;2.90;99.90;;;;;;5068859;28;20200;-64
2022/12/08 01:38:11;;;;;;;4.43;1.80;;;2.90;99.90;;;;;;5032666;28;20213;-63
2022/12/08 01:40:38;;;;;;;1.63;1.40;;;2.90;99.90;;;;;;5067652;28;21094;-64
2022/12/08 01:43:05;;;;;;;4.57;1.63;;;2.90;99.90;;;;;;5058878;28;20202;-63
2022/12/08 01:45:32;;;;;;;3.73;1.70;;;2.90;99.90;;;;;;5065545;28;20226;-64
2022/12/08 01:48:03;;;;;;;2.83;1.60;;;2.90;99.90;;;;;;5055615;28;20196;-64
2022/12/08 01:50:30;;;;;;;3.83;1.90;;;2.90;99.90;;;;;;5070216;28;20565;-63
2022/12/08 01:53:01;;;;;;;9.70;1.70;;;2.90;99.90;;;;;;5061202;28;20210;-63
2022/12/08 01:55:36;;;;;;;4.53;1.20;;;2.90;99.90;;;;;;5041225;28;20212;-63
2022/12/08 01:58:08;;;;;;;3.23;1.53;;;3.00;99.90;;;;;;5055148;28;20196;-63
2022/12/08 02:00:34;;;;;;;1.20;1.10;;;3.00;99.90;;;;;;5068036;28;20673;-63
2022/12/08 02:03:04;;;;;;;1.30;1.20;;;3.00;99.90;;;;;;5058217;28;20676;-63
2022/12/08 02:05:33;;;;;;;5.07;1.40;;;3.00;99.90;;;;;;5069006;28;20685;-63
2022/12/08 02:08:05;;;;;;;1.90;1.23;;;3.10;99.90;;;;;;5062116;28;20207;-64
2022/12/08 02:10:37;;;;;;;2.17;1.40;;;3.10;99.90;;;;;;5038915;28;20227;-63
2022/12/08 02:13:05;;;;;;;5.40;1.47;;;3.10;99.90;;;;;;5051566;28;20196;-63
2022/12/08 02:15:39;;;;;;;1.40;1.00;;;3.20;99.90;;;;;;5065626;28;20198;-63
2022/12/08 02:18:24;;;;;;;3.43;1.23;;;3.20;99.90;;;;;;5067173;28;20202;-64
2022/12/08 02:20:57;;;;;;;3.23;1.40;;;3.20;99.90;;;;;;5049683;28;20236;-63
2022/12/08 02:23:33;;;;;;;1.57;1.20;;;3.20;99.90;;;;;;5058566;28;20231;-64
2022/12/08 02:26:44;;;;;;;4.23;1.37;;;3.10;99.90;;;;;;5037527;28;20234;-64
2022/12/08 02:29:34;;;;;;;2.23;1.50;;;3.10;99.90;;;;;;4973134;28;20701;-63
2022/12/08 02:32:33;;;;;;;2.27;1.30;;;3.10;99.90;;;;;;5061242;28;20287;-64
2022/12/08 02:35:05;;;;;;;1.17;1.00;;;3.10;99.90;;;;;;5028089;28;20302;-64
2022/12/08 02:37:38;;;;;;;2.03;1.10;;;3.20;99.90;;;;;;5065334;28;20196;-63
2022/12/08 02:40:13;;;;;;;5.17;1.30;;;3.10;99.90;;;;;;5059785;28;20207;-64
2022/12/08 02:42:46;;;;;;;2.60;1.27;;;3.10;99.90;;;;;;5036829;28;20700;-64
2022/12/08 02:45:18;;;;;;;1.73;1.23;;;3.10;99.90;;;;;;5065092;28;20588;-63
2022/12/08 02:47:46;;;;;;;3.93;1.50;;;3.00;99.90;;;;;;5064320;28;20196;-65
2022/12/08 02:50:15;;;;;;;2.23;1.27;;;3.00;99.90;;;;;;5067408;28;20250;-64
2022/12/08 02:52:44;;;;;;;2.57;1.43;;;2.90;99.90;;;;;;5053070;28;20207;-64
2022/12/08 02:55:24;;;;;;;1.30;1.13;;;3.00;99.90;;;;;;5060066;28;20207;-63
2022/12/08 02:58:29;;;;;;;1.73;1.27;;;3.00;99.90;;;;;;5034449;28;20211;-64
2022/12/08 03:01:09;;;;;;;1.43;1.30;;;2.90;99.90;;;;;;5039345;28;20420;-64
2022/12/08 03:03:44;;;;;;;1.53;1.20;;;2.90;99.90;;;;;;5065023;28;20196;-64
2022/12/08 03:06:25;;;;;;;2.93;1.30;;;2.90;99.90;;;;;;5066142;28;20197;-64
2022/12/08 03:08:57;;;;;;;1.03;1.00;;;2.80;99.90;;;;;;5053640;28;20646;-63
2022/12/08 03:11:30;;;;;;;1.20;1.10;;;2.70;99.90;;;;;;5059614;28;20242;-63
2022/12/08 03:14:01;;;;;;;1.43;1.13;;;2.70;99.90;;;;;;5043515;28;20619;-63
2022/12/08 03:16:29;;;;;;;2.17;1.37;;;2.60;99.90;;;;;;5058067;28;20250;-63
2022/12/08 03:19:02;;;;;;;1.77;1.00;;;2.60;99.90;;;;;;5068306;28;20208;-64
2022/12/08 03:21:34;;;;;;;1.57;1.20;;;2.70;99.90;;;;;;5062862;28;20639;-63
2022/12/08 03:24:03;;;;;;;4.27;1.20;;;2.50;99.90;;;;;;5055589;28;20201;-64
2022/12/08 03:26:34;;;;;;;2.60;1.30;;;2.50;99.90;;;;;;5067072;28;20202;-64
2022/12/08 03:29:01;;;;;;;1.50;1.40;;;2.50;99.90;;;;;;5036698;28;20207;-64
2022/12/08 03:31:33;;;;;;;2.33;1.30;;;2.50;99.90;;;;;;5062243;28;20783;-64
2022/12/08 03:34:02;;;;;;;1.43;1.27;;;2.60;99.90;;;;;;5069697;28;20273;-64
2022/12/08 03:36:31;;;;;;;1.37;1.27;;;2.50;99.90;;;;;;5064588;28;21336;-64
2022/12/08 03:39:00;;;;;;;6.20;1.20;;;2.60;99.90;;;;;;5044564;28;20201;-64
2022/12/08 03:41:26;;;;;;;3.40;1.27;;;2.70;99.90;;;;;;5062484;28;20228;-63
2022/12/08 03:43:55;;;;;;;3.30;1.40;;;2.80;99.90;;;;;;5030605;28;20214;-64
2022/12/08 03:46:23;;;;;;;1.33;1.23;;;2.80;99.90;;;;;;5054904;28;20220;-64
2022/12/08 03:48:50;;;;;;;1.90;1.30;;;2.90;99.90;;;;;;5061965;28;20211;-64
2022/12/08 03:51:17;;;;;;;4.30;1.53;;;2.90;99.90;;;;;;5064782;28;20595;-64
2022/12/08 03:53:46;;;;;;;1.23;1.13;;;3.00;99.90;;;;;;5041308;28;20285;-64
2022/12/08 03:56:19;;;;;;;4.17;1.60;;;3.00;99.90;;;;;;5068653;28;20730;-63
2022/12/08 03:58:46;;;;;;;1.93;1.40;;;3.00;99.90;;;;;;5035184;28;20207;-63
2022/12/08 04:01:13;;;;;;;1.03;1.00;;;3.10;99.90;;;;;;5053978;28;20242;-64
2022/12/08 04:03:40;;;;;;;2.70;1.10;;;3.10;99.90;;;;;;5060637;28;20219;-63
2022/12/08 04:06:07;;;;;;;1.13;0.83;;;3.10;99.90;;;;;;5066662;28;20203;-64
2022/12/08 04:08:34;;;;;;;3.33;0.90;;;3.10;99.90;;;;;;5053212;28;20200;-64
2022/12/08 04:11:02;;;;;;;4.60;1.20;;;3.10;99.90;;;;;;5056880;28;20220;-64
2022/12/08 04:13:30;;;;;;;1.43;1.10;;;3.10;99.90;;;;;;5037148;28;20560;-65
2022/12/08 04:15:56;;;;;;;0.90;0.90;;;3.20;99.90;;;;;;5059704;28;20223;-65
2022/12/08 04:18:23;;;;;;;1.97;1.27;;;3.20;99.90;;;;;;5056496;28;20236;-64
2022/12/08 04:20:50;;;;;;;2.50;1.30;;;3.10;99.90;;;;;;5053331;28;20232;-64
2022/12/08 04:23:17;;;;;;;1.87;1.00;;;3.20;99.90;;;;;;5061229;28;21669;-64
2022/12/08 04:25:44;;;;;;;1.10;1.00;;;3.20;99.90;;;;;;5057018;28;20583;-64
2022/12/08 04:28:12;;;;;;;1.57;1.30;;;3.20;99.90;;;;;;5067242;28;20233;-64
2022/12/08 04:30:40;;;;;;;1.83;1.10;;;3.10;99.90;;;;;;5041660;28;20223;-65
2022/12/08 04:33:06;;;;;;;1.10;1.00;;;3.20;99.90;;;;;;5053971;28;20208;-64
2022/12/08 04:35:33;;;;;;;1.07;0.97;;;3.20;99.90;;;;;;5060789;28;20211;-64
2022/12/08 04:38:00;;;;;;;4.27;1.63;;;3.20;99.90;;;;;;5066765;28;20207;-64
2022/12/08 04:40:27;;;;;;;2.40;1.37;;;3.20;99.90;;;;;;5049357;28;20231;-64
2022/12/08 04:42:54;;;;;;;3.10;1.83;;;3.30;99.90;;;;;;5065479;28;20219;-64
2022/12/08 04:45:22;;;;;;;0.93;0.93;;;3.20;99.90;;;;;;5037207;28;20588;-64
2022/12/08 04:47:49;;;;;;;1.10;1.00;;;3.20;99.90;;;;;;5063331;22;20549;-65
2022/12/08 04:50:16;;;;;;;1.87;1.10;;;3.30;99.90;;;;;;5044675;28;20685;-64
2022/12/08 04:52:43;;;;;;;4.27;1.17;;;3.20;99.90;;;;;;5040877;28;20205;-64
2022/12/08 04:55:10;;;;;;;1.17;1.07;;;3.20;99.90;;;;;;5035945;28;23030;-65
2022/12/08 04:57:37;;;;;;;1.33;1.10;;;3.20;99.90;;;;;;5024517;28;20234;-64
2022/12/08 05:00:05;;;;;;;3.17;1.37;;;3.20;99.90;;;;;;5010388;28;20223;-65
2022/12/08 05:02:33;;;;;;;1.37;1.27;;;3.20;99.90;;;;;;5036025;28;20319;-64
2022/12/08 05:05:00;;;;;;;1.40;0.97;;;3.20;99.90;;;;;;5029163;28;20205;-64
2022/12/08 05:07:27;;;;;;;1.30;1.20;;;3.20;99.90;;;;;;5034328;28;20193;-64
2022/12/08 05:09:54;;;;;;;2.73;1.03;;;3.20;99.90;;;;;;5040519;28;20215;-64
2022/12/08 05:12:21;;;;;;;2.90;1.23;;;3.20;99.90;;;;;;5026249;28;20264;-64
2022/12/08 05:14:48;;;;;;;1.33;1.13;;;3.20;99.90;;;;;;5047979;28;20204;-64
2022/12/08 05:17:15;;;;;;;2.03;1.43;;;3.20;99.90;;;;;;5020995;28;20871;-64
2022/12/08 05:19:43;;;;;;;1.40;1.30;;;3.20;99.90;;;;;;5034473;28;20205;-64
2022/12/08 05:22:10;;;;;;;0.90;0.90;;;3.10;99.90;;;;;;5037081;28;20227;-64
2022/12/08 05:24:37;;;;;;;2.20;1.00;;;3.10;99.90;;;;;;5037134;28;20217;-64
2022/12/08 05:27:04;;;;;;;1.87;1.47;;;3.10;99.90;;;;;;5026678;28;20301;-64
2022/12/08 05:29:31;;;;;;;1.63;1.03;;;3.10;99.90;;;;;;5028243;28;20228;-64
2022/12/08 05:31:58;;;;;;;2.20;1.20;;;3.10;99.90;;;;;;5014918;28;20225;-63
2022/12/08 05:34:25;;;;;;;1.50;1.40;;;3.20;99.90;;;;;;5018506;28;20231;-64
2022/12/08 05:36:53;;;;;;;1.87;1.20;;;3.20;99.90;;;;;;5019576;28;20223;-64
2022/12/08 05:39:19;;;;;;;4.03;1.57;;;3.20;99.90;;;;;;5032831;28;20235;-64
2022/12/08 05:41:46;;;;;;;2.27;1.53;;;3.20;99.90;;;;;;5034777;28;20197;-64
2022/12/08 05:44:13;;;;;;;1.87;1.70;;;3.20;99.90;;;;;;5019656;28;20212;-64
2022/12/08 05:46:40;;;;;;;1.67;1.40;;;3.30;99.90;;;;;;5010874;28;20212;-64
2022/12/08 05:49:07;;;;;;;1.40;1.30;;;3.20;99.90;;;;;;5025579;28;20233;-65
2022/12/08 05:51:33;;;;;;;2.57;1.50;;;3.30;99.90;;;;;;5029355;28;20732;-64
2022/12/08 05:54:01;;;;;;;1.33;1.23;;;3.20;99.90;;;;;;5032642;28;20624;-65
2022/12/08 05:56:28;;;;;;;2.50;1.40;;;3.30;99.90;;;;;;5040268;28;20202;-64
2022/12/08 05:58:55;;;;;;;1.20;1.10;;;3.20;99.90;;;;;;5026148;28;20231;-64
2022/12/08 06:01:23;;;;;;;2.83;1.50;;;3.30;99.90;;;;;;5026375;28;20209;-64
2022/12/08 06:03:50;;;;;;;1.50;1.40;;;3.20;99.90;;;;;;5006645;28;20226;-64
2022/12/08 06:06:17;;;;;;;1.20;1.10;;;3.20;99.90;;;;;;5029697;28;20220;-64
2022/12/08 06:08:44;;;;;;;2.03;1.27;;;3.20;99.90;;;;;;5020744;28;20716;-64
2022/12/08 06:11:19;;;;;;;1.23;1.10;;;3.20;99.90;;;;;;5045454;28;20233;-64
2022/12/08 06:13:46;;;;;;;1.10;1.10;;;3.20;99.90;;;;;;5029231;28;20198;-64
2022/12/08 06:16:13;;;;;;;3.40;1.33;;;3.20;99.90;;;;;;5034372;28;20287;-64
2022/12/08 06:18:40;;;;;;;1.40;0.93;;;3.30;99.90;;;;;;5013865;28;20221;-64
2022/12/08 06:21:08;;;;;;;1.40;1.17;;;3.20;99.90;;;;;;5021984;28;20262;-64
2022/12/08 06:23:35;;;;;;;1.30;1.20;;;3.20;99.90;;;;;;5029244;28;20224;-64
2022/12/08 06:26:02;;;;;;;1.60;1.50;;;3.20;99.90;;;;;;5032634;28;20651;-64
2022/12/08 06:28:31;;;;;;;0.90;0.90;;;3.30;99.90;;;;;;5036147;28;20223;-65
2022/12/08 06:30:59;;;;;;;1.63;1.33;;;3.20;99.90;;;;;;5021749;28;20228;-65
2022/12/08 06:33:26;;;;;;;1.30;1.20;;;3.30;99.90;;;;;;4998450;28;20225;-65
2022/12/08 06:35:53;;;;;;;3.60;1.23;;;3.20;99.90;;;;;;5025318;28;20223;-64
2022/12/08 06:38:20;;;;;;;2.33;1.10;;;3.30;99.90;;;;;;5012476;28;20233;-64
2022/12/08 06:40:54;;;;;;;2.70;1.07;;;3.30;99.90;;;;;;5038222;28;20785;-64
2022/12/08 06:43:21;;;;;;;1.13;1.00;;;3.20;99.90;;;;;;5043565;28;20235;-64
2022/12/08 06:45:49;;;;;;;1.10;1.00;;;3.20;99.90;;;;;;5044119;28;20231;-64
2022/12/08 06:48:16;;;;;;;0.90;0.90;;;3.10;99.90;;;;;;5038094;28;20229;-64
2022/12/08 06:50:43;;;;;;;1.93;0.97;;;3.10;99.90;;;;;;5016322;28;20859;-64
2022/12/08 06:53:11;;;;;;;1.70;1.00;;;3.10;99.90;;;;;;5019355;28;20750;-65
2022/12/08 06:55:42;;;;;;;2.03;1.00;;;3.10;99.90;;;;;;5040296;28;20209;-65
2022/12/08 06:58:09;;;;;;;1.40;0.90;;;3.10;99.90;;;;;;5043443;28;20204;-65
2022/12/08 07:00:35;;;;;;;2.67;0.80;;;3.10;99.90;;;;;;5035928;28;20201;-65
2022/12/08 07:03:04;;;;;;;1.20;0.90;;;3.10;99.90;;;;;;5043749;28;20638;-65
2022/12/08 07:05:30;;;;;;;1.10;1.00;;;3.20;99.90;;;;;;5010148;28;20216;-65
2022/12/08 07:07:57;;;;;;;1.87;1.30;;;3.10;99.90;;;;;;4987872;28;20211;-65
2022/12/08 07:10:24;;;;;;;1.13;1.03;;;3.10;99.90;;;;;;5032052;28;20705;-64
2022/12/08 07:12:51;;;;;;;3.03;1.17;;;3.10;99.90;;;;;;5018990;28;20733;-64
2022/12/08 07:15:18;;;;;;;1.30;1.20;;;3.00;99.90;;;;;;5038390;28;20418;-64
2022/12/08 07:17:47;;;;;;;1.17;1.07;;;3.00;99.90;;;;;;5035452;28;20200;-64
2022/12/08 07:20:15;;;;;;;1.20;1.10;;;3.00;99.90;;;;;;5005038;28;20642;-64
2022/12/08 07:22:48;;;;;;;1.53;1.20;;;2.90;99.90;;;;;;5017173;28;20227;-65
2022/12/08 07:25:15;;;;;;;1.23;1.13;;;3.00;99.90;;;;;;5013279;28;20685;-64
2022/12/08 07:27:42;;;;;;;1.10;1.00;;;3.00;99.90;;;;;;5035605;28;20224;-64
2022/12/08 07:30:09;;;;;;;1.20;1.10;;;2.90;99.90;;;;;;5019303;28;20213;-64
2022/12/08 07:32:37;;;;;;;1.07;1.00;;;2.90;99.90;;;;;;5039810;28;20227;-64
2022/12/08 07:35:04;;;;;;;2.13;1.17;;;3.00;99.90;;;;;;5009476;28;20238;-65
2022/12/08 07:37:33;;;;;;;1.50;1.40;;;3.00;99.90;;;;;;5040436;28;20195;-65
2022/12/08 07:39:59;;;;;;;1.20;1.10;;;3.00;99.90;;;;;;5007817;28;20213;-65
2022/12/08 07:42:26;;;;;;;1.30;1.10;;;2.90;99.90;;;;;;5033997;28;20505;-65
2022/12/08 07:44:53;;;;;;;1.60;1.30;;;2.90;99.90;;;;;;5024531;28;20672;-66
2022/12/08 07:47:20;;;;;;;1.20;0.90;;;3.00;99.90;;;;;;5033401;28;20200;-66
2022/12/08 07:49:47;;;;;;;1.43;1.27;;;3.00;99.90;;;;;;5007940;28;20216;-65
2022/12/08 07:52:14;;;;;;;1.10;1.00;;;3.00;99.90;;;;;;5038564;28;20600;-65
2022/12/08 07:54:42;;;;;;;1.60;1.13;;;3.00;99.90;;;;;;5020612;28;20208;-65
2022/12/08 07:57:09;;;;;;;2.37;1.27;;;3.00;99.90;;;;;;5026864;28;20201;-65
2022/12/08 07:59:36;;;;;;;2.40;1.00;;;2.90;99.90;;;;;;5035420;28;20205;-65
2022/12/08 08:02:03;;;;;;;1.20;1.00;;;2.90;99.90;;;;;;5024352;28;20211;-66
2022/12/08 08:04:30;;;;;;;4.07;1.40;;;2.90;99.90;;;;;;5041578;28;20230;-65
2022/12/08 08:06:56;;;;;;;1.53;1.23;;;2.80;99.90;;;;;;5010661;28;20225;-65
2022/12/08 08:09:23;;;;;;;2.27;1.23;;;2.80;99.90;;;;;;5039535;28;20223;-65
2022/12/08 08:11:51;;;;;;;1.17;1.07;;;2.70;99.90;;;;;;5017060;28;20240;-65
2022/12/08 08:14:19;;;;;;;1.90;1.10;;;2.80;99.90;;;;;;5039141;28;20223;-65
2022/12/08 08:16:46;;;;;;;1.50;1.40;;;2.70;99.90;;;;;;5022244;28;20712;-65
2022/12/08 08:19:13;;;;;;;1.20;1.10;;;2.70;99.90;;;;;;5034647;28;20438;-65
2022/12/08 08:21:40;;;;;;;1.13;1.07;;;2.70;99.90;;;;;;5012283;28;20236;-65
2022/12/08 08:24:07;;;;;;;0.97;0.87;;;2.60;99.90;;;;;;5043050;28;20214;-66
2022/12/08 08:26:34;;;;;;;1.37;1.00;;;2.60;99.90;;;;;;5011059;28;20937;-66
2022/12/08 08:29:02;;;;;;;1.93;1.20;;;2.60;99.90;;;;;;5041666;28;20207;-65
2022/12/08 08:31:29;;;;;;;1.03;0.93;;;2.40;99.90;;;;;;5026731;28;20486;-65
2022/12/08 08:33:56;;;;;;;1.00;0.90;;;2.40;99.90;;;;;;5043257;28;20198;-65
2022/12/08 08:36:23;;;;;;;1.10;1.00;;;2.40;99.90;;;;;;4995931;28;20216;-66
2022/12/08 08:38:50;;;;;;;1.40;1.30;;;2.40;99.90;;;;;;5038501;28;20208;-65
2022/12/08 08:41:17;;;;;;;1.30;1.20;;;2.40;99.90;;;;;;5017927;28;20315;-65
2022/12/08 08:43:44;;;;;;;2.40;1.70;;;2.40;99.90;;;;;;5025035;28;20413;-65
2022/12/08 08:46:12;;;;;;;1.73;1.63;;;2.50;99.90;;;;;;5035703;28;20206;-65
2022/12/08 08:48:38;;;;;;;3.70;2.57;;;2.40;99.90;;;;;;5028871;28;20832;-65
2022/12/08 08:51:10;;;;;;;2.20;2.00;;;2.50;99.90;;;;;;5017344;28;20201;-65
2022/12/08 08:53:37;;;;;;;2.37;2.00;;;2.50;99.90;;;;;;5040935;28;20238;-65
2022/12/08 08:56:08;;;;;;;2.37;2.00;;;2.50;99.90;;;;;;5049260;28;20203;-65
2022/12/08 08:58:35;;;;;;;4.30;2.87;;;2.50;99.90;;;;;;5015013;28;20216;-65
2022/12/08 09:01:02;;;;;;;3.27;2.13;;;2.50;99.90;;;;;;5041979;28;20203;-65
2022/12/08 09:03:30;;;;;;;2.60;2.33;;;2.50;99.90;;;;;;5030059;28;20737;-66
2022/12/08 09:05:57;;;;;;;2.27;2.07;;;2.50;99.90;;;;;;5034016;28;20969;-65
2022/12/08 09:08:24;;;;;;;2.40;1.80;;;2.50;99.90;;;;;;5004639;28;20251;-65
2022/12/08 09:10:51;;;;;;;4.67;1.60;;;2.50;99.90;;;;;;5037377;28;20211;-65
2022/12/08 09:13:18;;;;;;;1.30;1.20;;;2.60;99.90;;;;;;5018375;28;20608;-66
2022/12/08 09:15:44;;;;;;;6.93;1.53;;;2.50;99.90;;;;;;5036506;28;20229;-65
2022/12/08 09:18:11;;;;;;;1.47;1.37;;;2.50;99.90;;;;;;5036445;28;20209;-65
2022/12/08 09:20:39;;;;;;;2.40;1.60;;;2.60;99.90;;;;;;5022033;28;20228;-64
2022/12/08 09:23:06;;;;;;;1.50;1.40;;;2.60;99.90;;;;;;5003901;28;20240;-64
2022/12/08 09:25:33;;;;;;;2.13;1.70;;;2.60;99.90;;;;;;5031398;28;20993;-64
2022/12/08 09:28:00;;;;;;;1.50;1.40;;;2.70;99.90;;;;;;5025005;28;20239;-64
2022/12/08 09:30:26;;;;;;;3.00;1.57;;;2.80;99.90;;;;;;5020911;28;20223;-65
2022/12/08 09:32:53;;;;;;;1.50;1.40;;;2.70;99.90;;;;;;5036933;28;20231;-64
2022/12/08 09:35:20;;;;;;;1.70;1.60;;;2.80;99.90;;;;;;5022807;28;20211;-64
2022/12/08 09:37:48;;;;;;;1.90;1.60;;;2.70;99.90;;;;;;5018538;28;20213;-65
2022/12/08 09:40:18;;;;;;;1.80;1.57;;;2.70;99.90;;;;;;5040301;28;20192;-66
2022/12/08 09:42:50;;;;;;;1.90;1.33;;;2.80;99.90;;;;;;5027674;28;20285;-66
2022/12/08 09:45:18;;;;;;;1.30;1.20;;;2.80;99.90;;;;;;5026003;28;20220;-65
2022/12/08 09:47:51;;;;;;;2.27;1.50;;;2.90;99.90;;;;;;5040219;28;20232;-65
2022/12/08 09:50:28;;;;;;;1.70;1.57;;;2.90;99.90;;;;;;5030559;28;20230;-65
2022/12/08 09:53:03;;;;;;;8.53;1.80;;;2.90;99.90;;;;;;5038021;28;20231;-65
2022/12/08 09:55:40;;;;;;;3.37;1.73;;;2.90;99.90;;;;;;5005147;28;20273;-65
2022/12/08 09:58:15;;;;;;;1.77;1.60;;;2.90;99.90;;;;;;5033904;28;20196;-64
2022/12/08 10:00:42;;;;;;;2.13;1.83;;;2.80;99.90;;;;;;5010265;28;20430;-65
2022/12/08 10:03:12;;;;;;;1.80;1.47;;;2.90;99.90;;;;;;5026902;28;20211;-65
2022/12/08 10:05:46;;;;;;;4.87;1.80;;;2.80;99.90;;;;;;5036655;28;20417;-65
2022/12/08 10:08:21;;;;;;;3.87;1.60;;;2.90;99.90;;;;;;5015929;28;20203;-66
2022/12/08 10:10:53;;;;;;;2.80;2.00;;;2.90;99.90;;;;;;5026198;28;20220;-65
2022/12/08 10:13:25;;;;;;;1.73;1.60;;;2.90;99.90;;;;;;5034116;28;20228;-66
2022/12/08 10:15:58;;;;;;;3.40;1.70;;;3.00;99.90;;;;;;5033290;28;20211;-66
2022/12/08 10:18:29;;;;;;;1.87;1.33;;;3.00;99.90;;;;;;5038008;28;20918;-66
2022/12/08 10:21:00;;;;;;;4.60;2.00;;;3.10;99.90;;;;;;5041471;28;20196;-66
2022/12/08 10:23:34;;;;;;;1.93;1.63;;;3.10;99.90;;;;;;5023514;28;20208;-65
2022/12/08 10:26:03;;;;;;;6.93;2.00;;;3.20;99.90;;;;;;5011671;28;20427;-66
2022/12/08 10:28:32;;;;;;;4.00;2.03;;;3.30;99.90;;;;;;5030079;28;20400;-66
2022/12/08 10:30:58;;;;;;;2.53;1.80;;;3.30;99.90;;;;;;5024615;28;20201;-65
2022/12/08 10:33:28;;;;;;;2.67;1.70;;;3.30;99.90;;;;;;5026013;28;20243;-66
2022/12/08 10:35:57;;;;;;;4.67;2.10;;;3.30;99.90;;;;;;5039428;28;20712;-65
2022/12/08 10:38:29;;;;;;;2.47;1.60;;;3.40;99.90;;;;;;5022160;28;20316;-65
2022/12/08 10:41:03;;;;;;;2.47;1.87;;;3.50;99.90;;;;;;5008634;28;20213;-66
2022/12/08 10:43:30;;;;;;;3.23;1.93;;;3.50;99.90;;;;;;5042972;28;20467;-65
2022/12/08 10:46:08;;;;;;;2.80;2.10;;;3.50;99.90;;;;;;5023431;28;20227;-66
2022/12/08 10:48:35;;;;;;;4.07;1.63;;;3.60;99.90;;;;;;5023653;28;20212;-64
2022/12/08 10:51:04;;;;;;;4.10;2.00;;;3.60;99.90;;;;;;5025897;28;20663;-66
2022/12/08 10:53:32;;;;;;;3.60;2.10;;;3.70;99.90;;;;;;5033354;28;20229;-66
2022/12/08 10:56:14;;;;;;;2.83;2.07;;;3.90;99.90;;;;;;5009877;28;20205;-70
2022/12/08 10:58:42;;;;;;;2.03;1.67;;;3.90;99.90;;;;;;5027123;28;20776;-65
2022/12/08 11:01:12;;;;;;;4.63;1.90;;;3.90;99.90;;;;;;5023713;28;20232;-66
2022/12/08 11:03:45;;;;;;;3.20;1.70;;;3.80;99.90;;;;;;5028630;28;20197;-66
2022/12/08 11:06:17;;;;;;;2.40;1.87;;;3.90;99.90;;;;;;5034558;28;24511;-66
2022/12/08 11:08:50;;;;;;;2.57;1.13;;;3.90;99.90;;;;;;5034522;28;20213;-66
2022/12/08 11:11:19;;;;;;;1.80;1.50;;;3.90;99.90;;;;;;5024091;28;20753;-65
2022/12/08 11:13:50;;;;;;;5.50;1.53;;;3.80;99.90;;;;;;5013800;28;20236;-65
2022/12/08 11:16:19;;;;;;;4.47;1.30;;;3.90;99.90;;;;;;5022715;28;20462;-65
2022/12/08 11:18:55;;;;;;;1.40;1.30;;;3.90;99.90;;;;;;5044528;28;20200;-65
2022/12/08 11:21:34;;;;;;;4.13;1.27;;;4.00;99.90;;;;;;5033450;28;20270;-65
2022/12/08 11:24:18;;;;;;;5.70;1.17;;;4.10;99.90;;;;;;5041476;28;20999;-65
2022/12/08 11:26:50;;;;;;;3.60;1.80;;;4.10;99.90;;;;;;5012045;28;20207;-66
2022/12/08 11:29:17;;;;;;;3.07;1.23;;;4.10;99.90;;;;;;5012163;28;20239;-65
2022/12/08 11:31:49;;;;;;;2.10;1.20;;;4.10;99.90;;;;;;5013715;28;20728;-66
2022/12/08 11:34:23;;;;;;;1.20;1.00;;;4.10;99.90;;;;;;5042489;28;21003;-65
2022/12/08 11:36:53;;;;;;;3.30;1.13;;;4.00;99.90;;;;;;5031483;28;21747;-66
2022/12/08 11:39:21;;;;;;;4.17;1.40;;;4.10;99.90;;;;;;5034648;28;20611;-65
2022/12/08 11:41:53;;;;;;;1.87;1.30;;;4.10;99.90;;;;;;5011112;28;21006;-65
2022/12/08 11:44:28;;;;;;;2.30;1.03;;;4.30;99.90;;;;;;4997749;28;20726;-64
2022/12/08 11:46:59;;;;;;;1.83;1.37;;;4.30;99.90;;;;;;5036948;28;20199;-65
2022/12/08 11:49:34;;;;;;;1.73;1.30;;;4.20;99.90;;;;;;5020667;28;21341;-65
2022/12/08 11:52:05;;;;;;;1.30;1.10;;;4.30;99.90;;;;;;5017183;28;20708;-65
2022/12/08 11:54:35;;;;;;;2.07;1.03;;;4.30;99.90;;;;;;5031296;28;20229;-65
2022/12/08 11:57:07;;;;;;;2.93;1.03;;;4.20;99.90;;;;;;5012299;28;21356;-65
2022/12/08 11:59:38;;;;;;;1.87;1.23;;;4.20;99.90;;;;;;4989817;28;20200;-65
2022/12/08 12:02:05;;;;;;;3.00;0.93;;;4.20;99.90;;;;;;5037198;28;20756;-64
2022/12/08 12:04:38;;;;;;;3.13;1.10;;;4.20;99.90;;;;;;5022801;28;20209;-66
2022/12/08 12:07:34;;;;;;;3.63;1.10;;;4.30;99.90;;;;;;5023481;28;20204;-66
2022/12/08 12:10:25;;;;;;;1.33;1.00;;;4.30;99.90;;;;;;5030210;28;20208;-66
2022/12/08 12:13:09;;;;;;;3.07;1.00;;;4.30;99.90;;;;;;5008421;28;20228;-65
2022/12/08 12:16:04;;;;;;;1.77;0.87;;;4.20;99.90;;;;;;5004606;28;20208;-65
2022/12/08 12:18:37;;;;;;;4.47;1.20;;;4.20;99.90;;;;;;5025417;28;20370;-65
2022/12/08 12:21:10;;;;;;;2.83;0.83;;;4.10;99.90;;;;;;5021196;28;20435;-66
2022/12/08 12:23:41;;;;;;;0.87;0.83;;;4.00;99.90;;;;;;5033166;28;20197;-64
2022/12/08 12:26:09;;;;;;;0.80;0.73;;;3.90;99.90;;;;;;5033463;28;20224;-65
2022/12/08 12:28:42;;;;;;;2.80;1.20;;;3.90;99.90;;;;;;5019377;28;20207;-64
2022/12/08 12:31:13;;;;;;;3.53;1.53;;;3.80;99.90;;;;;;4999463;28;20842;-65
2022/12/08 12:33:41;;;;;;;4.80;1.80;;;3.70;99.90;;;;;;5016603;28;20224;-65
2022/12/08 12:36:09;;;;;;;1.00;0.90;;;3.70;99.90;;;;;;5038930;28;20228;-65
2022/12/08 12:41:27;;;;;;;3.17;0.93;;;3.60;99.90;;;;;;5040007;28;20220;-65
2022/12/08 12:44:37;;;;;;;1.30;1.03;;;3.70;99.90;;;;;;5018830;28;20233;-65
2022/12/08 12:47:11;;;;;;;1.83;0.90;;;3.80;99.90;;;;;;5004741;28;20415;-65
2022/12/08 12:50:06;;;;;;;0.60;0.60;;;4.10;99.90;;;;;;5021036;28;20216;-65
2022/12/08 12:52:38;;;;;;;1.90;0.90;;;4.20;99.90;;;;;;5028673;28;20211;-65
2022/12/08 12:55:51;;;;;;;2.93;1.17;;;4.20;99.90;;;;;;5040738;28;20334;-65
2022/12/08 12:58:39;;;;;;;5.30;0.70;;;4.30;99.90;;;;;;5036740;28;20204;-65
2022/12/08 13:01:55;;;;;;;1.57;1.00;;;4.40;99.90;;;;;;5002735;28;20283;-65
2022/12/08 13:04:32;;;;;;;3.50;1.30;;;4.50;99.90;;;;;;5015622;28;20241;-65
2022/12/08 13:07:00;;;;;;;1.87;1.20;;;4.40;99.90;;;;;;5022719;28;20227;-65
2022/12/08 13:09:32;;;;;;;0.90;0.73;;;4.50;99.90;;;;;;5021289;28;20312;-65
2022/12/08 13:12:07;;;;;;;0.80;0.80;;;4.50;99.90;;;;;;5018258;28;20431;-65
2022/12/08 13:14:36;;;;;;;6.03;1.90;;;4.50;99.90;;;;;;5021280;28;20224;-64
2022/12/08 13:17:07;;;;;;;2.17;1.20;;;4.60;99.90;;;;;;4996634;28;20478;-64
2022/12/08 13:19:38;;;;;;;0.63;0.63;;;4.60;99.90;;;;;;5010933;28;20228;-64